createdAt,value
2019-04-21T00:01:57.853Z,66.70
2019-04-21T00:04:40.718Z,67.00
2019-04-21T00:07:31.897Z,67.60
2019-04-21T00:12:19.667Z,68.50
2019-04-21T00:14:42.393Z,69.10
2019-04-21T00:17:05.869Z,69.20
2019-04-21T00:19:43.022Z,69.60
2019-04-21T00:22:23.700Z,70.00
2019-04-21T00:24:59.769Z,69.70
2019-04-21T00:27:32.026Z,69.60
2019-04-21T00:30:04.626Z,70.20
2019-04-21T00:32:28.088Z,70.20
2019-04-21T00:34:51.009Z,70.30
2019-04-21T00:37:24.175Z,70.50
2019-04-21T00:40:06.322Z,70.50
2019-04-21T00:42:37.411Z,70.70
2019-04-21T00:45:01.938Z,70.90
2019-04-21T00:47:35.826Z,71.50
2019-04-21T00:50:05.081Z,71.80
2019-04-21T00:52:51.001Z,71.70
2019-04-21T00:57:51.710Z,72.10
2019-04-21T01:00:20.235Z,72.70
2019-04-21T01:02:52.534Z,73.30
2019-04-21T01:05:36.101Z,74.30
2019-04-21T01:07:48.244Z,73.50
2019-04-21T01:10:09.371Z,74.10
2019-04-21T01:12:49.264Z,73.70
2019-04-21T01:15:24.641Z,74.60
2019-04-21T01:17:46.028Z,74.20
2019-04-21T01:20:13.273Z,74.70
2019-04-21T01:22:28.218Z,75.50
2019-04-21T01:25:05.605Z,75.40
2019-04-21T01:27:49.408Z,75.40
2019-04-21T01:30:16.519Z,75.70
2019-04-21T01:32:51.246Z,75.70
2019-04-21T01:35:16.439Z,76.00
2019-04-21T01:37:52.423Z,76.30
2019-04-21T01:40:22.906Z,76.80
2019-04-21T01:42:51.161Z,76.80
2019-04-21T01:45:14.703Z,76.90
2019-04-21T01:47:46.325Z,77.40
2019-04-21T01:50:19.843Z,77.60
2019-04-21T01:53:11.344Z,77.90
2019-04-21T01:55:25.242Z,78.10
2019-04-21T01:57:54.002Z,78.80
2019-04-21T02:00:30.522Z,79.30
2019-04-21T02:03:10.735Z,79.20
2019-04-21T02:05:37.548Z,79.30
2019-04-21T02:08:01.086Z,79.20
2019-04-21T02:10:44.419Z,79.60
2019-04-21T02:13:03.448Z,79.80
2019-04-21T02:15:36.044Z,79.60
2019-04-21T02:18:06.091Z,79.60
2019-04-21T02:20:26.944Z,80.10
2019-04-21T02:23:19.089Z,80.00
2019-04-21T02:25:41.019Z,79.80
2019-04-21T02:28:13.453Z,80.00
2019-04-21T02:30:57.995Z,80.10
2019-04-21T02:33:28.008Z,80.30
2019-04-21T02:38:23.773Z,81.80
2019-04-21T02:40:51.356Z,81.40
2019-04-21T02:48:35.295Z,82.10
2019-04-21T02:50:47.252Z,82.80
2019-04-21T02:53:37.409Z,83.00
2019-04-21T02:55:50.846Z,82.80
2019-04-21T03:01:24.371Z,84.70
2019-04-21T03:04:04.844Z,84.60
2019-04-21T03:06:27.133Z,85.10
2019-04-21T03:11:24.173Z,86.00
2019-04-21T03:13:57.291Z,86.80
2019-04-21T03:16:22.566Z,87.30
2019-04-21T03:19:04.929Z,87.50
2019-04-21T03:21:25.913Z,87.20
2019-04-21T03:23:54.061Z,87.90
2019-04-21T03:26:28.327Z,88.30
2019-04-21T03:28:54.420Z,87.50
2019-04-21T03:31:49.452Z,87.60
2019-04-21T03:34:34.744Z,87.60
2019-04-21T03:38:57.213Z,88.00
2019-04-21T03:43:58.946Z,88.40
2019-04-21T03:46:39.275Z,89.40
2019-04-21T03:53:54.003Z,88.40
2019-04-21T03:56:44.345Z,88.60
2019-04-21T03:58:58.498Z,88.40
2019-04-21T04:04:15.594Z,89.30
2019-04-21T04:06:46.952Z,89.40
2019-04-21T04:09:44.495Z,89.60
2019-04-21T04:11:56.687Z,89.90
2019-04-21T04:14:33.504Z,89.40
2019-04-21T04:17:10.143Z,89.60
2019-04-21T04:19:34.401Z,89.90
2019-04-21T04:22:06.028Z,90.20
2019-04-21T04:24:39.611Z,90.40
2019-04-21T04:27:09.748Z,90.70
2019-04-21T04:31:55.387Z,90.40
2019-04-21T04:37:12.634Z,90.60
2019-04-21T04:44:59.669Z,90.60
2019-04-21T04:47:18.343Z,90.50
2019-04-21T04:49:47.960Z,90.40
2019-04-21T04:57:27.467Z,90.50
2019-04-21T04:59:47.623Z,90.90
2019-04-21T05:02:20.663Z,91.00
2019-04-21T05:04:59.276Z,91.20
2019-04-21T05:07:17.416Z,91.50
2019-04-21T05:09:46.927Z,91.70
2019-04-21T05:12:11.960Z,91.50
2019-04-21T05:14:48.239Z,91.30
2019-04-21T05:17:21.517Z,90.80
2019-04-21T05:19:54.018Z,90.70
2019-04-21T05:22:16.855Z,91.10
2019-04-21T05:24:33.274Z,90.90
2019-04-21T05:27:05.032Z,91.50
2019-04-21T05:29:56.783Z,91.60
2019-04-21T05:32:16.997Z,91.50
2019-04-21T05:34:50.339Z,91.50
2019-04-21T05:37:31.696Z,91.50
2019-04-21T05:39:57.478Z,91.60
2019-04-21T05:42:28.445Z,91.60
2019-04-21T05:45:07.682Z,91.70
2019-04-21T05:47:39.761Z,91.60
2019-04-21T05:50:07.598Z,91.50
2019-04-21T05:52:35.371Z,91.50
2019-04-21T05:55:16.723Z,91.40
2019-04-21T05:57:44.231Z,90.80
2019-04-21T06:00:15.632Z,90.80
2019-04-21T06:02:47.164Z,90.80
2019-04-21T06:05:23.184Z,90.80
2019-04-21T06:07:42.720Z,90.60
2019-04-21T06:10:12.418Z,90.30
2019-04-21T06:12:50.307Z,90.40
2019-04-21T06:15:26.570Z,89.60
2019-04-21T06:17:55.045Z,89.90
2019-04-21T06:20:21.221Z,89.80
2019-04-21T06:22:54.236Z,90.10
2019-04-21T06:25:43.143Z,90.10
2019-04-21T06:27:51.016Z,89.80
2019-04-21T06:30:22.090Z,89.10
2019-04-21T06:32:49.119Z,88.80
2019-04-21T06:35:45.550Z,88.10
2019-04-21T06:38:03.787Z,88.30
2019-04-21T06:40:38.976Z,86.70
2019-04-21T06:43:13.017Z,86.70
2019-04-21T06:45:37.776Z,86.20
2019-04-21T06:48:06.297Z,85.30
2019-04-21T06:50:39.535Z,84.90
2019-04-21T06:53:06.827Z,84.80
2019-04-21T06:55:32.068Z,85.20
2019-04-21T06:58:07.908Z,85.10
2019-04-21T07:00:31.826Z,83.70
2019-04-21T07:03:16.012Z,84.50
2019-04-21T07:05:44.101Z,85.10
2019-04-21T07:08:21.692Z,84.70
2019-04-21T07:10:37.151Z,84.90
2019-04-21T07:13:03.671Z,84.80
2019-04-21T07:15:37.403Z,85.50
2019-04-21T07:18:12.912Z,84.50
2019-04-21T07:20:36.628Z,84.20
2019-04-21T07:23:09.444Z,84.40
2019-04-21T07:25:39.083Z,84.30
2019-04-21T07:28:10.829Z,85.00
2019-04-21T07:30:51.857Z,84.50
2019-04-21T07:33:36.027Z,84.40
2019-04-21T07:35:45.682Z,83.60
2019-04-21T07:38:09.638Z,84.10
2019-04-21T07:40:33.390Z,85.80
2019-04-21T07:43:08.646Z,84.50
2019-04-21T07:45:36.728Z,83.60
2019-04-21T07:48:14.324Z,83.10
2019-04-21T07:50:47.383Z,83.40
2019-04-21T07:53:36.470Z,82.90
2019-04-21T07:55:40.218Z,80.70
2019-04-21T07:58:31.831Z,82.60
2019-04-21T08:03:47.809Z,81.30
2019-04-21T08:06:09.873Z,81.70
2019-04-21T08:08:26.514Z,80.20
2019-04-21T08:10:56.969Z,81.20
2019-04-21T08:15:58.183Z,79.00
2019-04-21T08:18:33.505Z,79.10
2019-04-21T08:21:00.780Z,78.10
2019-04-21T08:23:31.831Z,78.10
2019-04-21T08:26:04.716Z,76.30
2019-04-21T08:28:35.428Z,78.00
2019-04-21T08:31:01.401Z,75.50
2019-04-21T08:33:38.389Z,76.30
2019-04-21T08:38:35.884Z,75.80
2019-04-21T08:46:08.147Z,74.90
2019-04-21T08:48:37.917Z,71.10
2019-04-21T08:51:24.489Z,72.80
2019-04-21T08:53:41.135Z,71.10
2019-04-21T08:58:56.068Z,71.70
2019-04-21T09:01:30.691Z,70.90
2019-04-21T09:04:02.761Z,69.80
2019-04-21T09:06:51.250Z,69.60
2019-04-21T09:09:17.892Z,70.10
2019-04-21T09:11:30.725Z,68.10
2019-04-21T09:14:04.748Z,68.90
2019-04-21T09:16:27.839Z,69.40
2019-04-21T09:18:54.390Z,66.80
2019-04-21T09:21:31.408Z,68.50
2019-04-21T09:24:04.542Z,66.20
2019-04-21T09:26:29.401Z,66.20
2019-04-21T09:28:52.231Z,66.40
2019-04-21T09:31:17.952Z,66.70
2019-04-21T09:33:48.780Z,67.90
2019-04-21T09:36:18.048Z,69.20
2019-04-21T09:38:50.722Z,67.00
2019-04-21T09:41:18.944Z,67.40
2019-04-21T09:43:48.956Z,66.60
2019-04-21T09:46:16.126Z,66.70
2019-04-21T09:48:54.912Z,66.20
2019-04-21T09:51:15.556Z,66.60
2019-04-21T09:53:56.164Z,65.60
2019-04-21T09:56:17.964Z,65.50
2019-04-21T09:58:49.739Z,65.30
2019-04-21T10:01:23.958Z,64.00
2019-04-21T10:03:48.680Z,63.40
2019-04-21T10:06:17.506Z,63.90
2019-04-21T10:08:50.371Z,65.60
2019-04-21T10:11:16.493Z,65.40
2019-04-21T10:13:46.242Z,65.00
2019-04-21T10:16:34.180Z,63.90
2019-04-21T10:19:04.524Z,61.00
2019-04-21T10:21:33.918Z,59.20
2019-04-21T10:24:02.577Z,60.70
2019-04-21T10:26:31.147Z,60.60
2019-04-21T10:29:08.171Z,61.30
2019-04-21T10:31:29.937Z,60.80
2019-04-21T10:33:59.090Z,57.80
2019-04-21T10:36:28.962Z,59.10
2019-04-21T10:38:58.984Z,58.40
2019-04-21T10:41:27.826Z,58.20
2019-04-21T10:43:56.431Z,58.70
2019-04-21T10:46:24.994Z,58.30
2019-04-21T10:48:54.827Z,57.60
2019-04-21T10:51:23.540Z,56.90
2019-04-21T10:53:54.290Z,57.50
2019-04-21T10:56:30.647Z,57.30
2019-04-21T10:58:54.171Z,58.60
2019-04-21T11:01:25.172Z,56.60
2019-04-21T11:04:02.585Z,56.60
2019-04-21T11:06:32.494Z,57.70
2019-04-21T11:09:01.983Z,56.80
2019-04-21T11:11:32.124Z,55.10
2019-04-21T11:14:02.233Z,55.50
2019-04-21T11:16:31.077Z,54.20
2019-04-21T11:18:59.999Z,54.80
2019-04-21T11:21:29.164Z,54.00
2019-04-21T11:23:58.470Z,54.70
2019-04-21T11:26:27.620Z,54.10
2019-04-21T11:28:56.800Z,53.30
2019-04-21T11:31:27.234Z,53.10
2019-04-21T11:33:57.426Z,53.70
2019-04-21T11:36:27.128Z,52.00
2019-04-21T11:39:16.351Z,51.80
2019-04-21T11:41:31.875Z,52.70
2019-04-21T11:44:01.453Z,50.60
2019-04-21T11:46:30.774Z,51.80
2019-04-21T11:49:00.093Z,49.80
2019-04-21T11:51:28.990Z,48.40
2019-04-21T11:53:59.047Z,47.30
2019-04-21T11:56:27.878Z,48.60
2019-04-21T11:58:57.821Z,48.30
2019-04-21T12:01:27.657Z,49.30
2019-04-21T12:03:57.830Z,47.80
2019-04-21T12:06:32.234Z,47.30
2019-04-21T12:08:59.831Z,48.50
2019-04-21T12:11:27.424Z,48.10
2019-04-21T12:13:56.330Z,48.40
2019-04-21T12:16:25.202Z,46.80
2019-04-21T12:18:54.672Z,46.50
2019-04-21T12:21:23.432Z,46.70
2019-04-21T12:23:52.401Z,47.90
2019-04-21T12:26:22.042Z,46.00
2019-04-21T12:28:51.933Z,46.00
2019-04-21T12:31:27.634Z,46.10
2019-04-21T12:33:58.143Z,47.80
2019-04-21T12:36:27.571Z,48.00
2019-04-21T12:38:59.668Z,46.70
2019-04-21T12:41:26.740Z,47.40
2019-04-21T12:43:55.393Z,47.50
2019-04-21T12:46:24.041Z,47.40
2019-04-21T12:48:53.728Z,46.00
2019-04-21T12:51:23.847Z,45.90
2019-04-21T12:53:53.926Z,45.00
2019-04-21T12:56:23.421Z,45.20
2019-04-21T12:58:53.286Z,44.20
2019-04-21T13:01:23.070Z,44.50
2019-04-21T13:03:52.111Z,43.70
2019-04-21T13:06:21.411Z,43.70
2019-04-21T13:08:58.915Z,44.40
2019-04-21T13:11:21.399Z,42.70
2019-04-21T13:13:50.610Z,41.50
2019-04-21T13:16:19.609Z,45.30
2019-04-21T13:18:49.221Z,44.90
2019-04-21T13:21:18.158Z,43.10
2019-04-21T13:23:47.246Z,41.20
2019-04-21T13:26:27.069Z,42.00
2019-04-21T13:28:46.065Z,43.70
2019-04-21T13:31:16.055Z,43.90
2019-04-21T13:33:46.061Z,43.80
2019-04-21T13:36:15.761Z,42.60
2019-04-21T13:39:27.520Z,44.40
2019-04-21T13:41:41.846Z,42.80
2019-04-21T13:44:13.293Z,42.70
2019-04-21T13:46:43.076Z,42.00
2019-04-21T13:49:13.691Z,41.90
2019-04-21T13:51:43.847Z,42.30
2019-04-21T13:54:13.889Z,41.70
2019-04-21T13:56:42.677Z,42.50
2019-04-21T13:59:11.371Z,43.90
2019-04-21T14:01:41.311Z,42.50
2019-04-21T14:04:11.529Z,41.70
2019-04-21T14:06:42.386Z,40.40
2019-04-21T14:09:13.712Z,40.40
2019-04-21T14:11:43.580Z,41.60
2019-04-21T14:14:12.521Z,41.70
2019-04-21T14:16:42.282Z,43.00
2019-04-21T14:19:11.043Z,41.30
2019-04-21T14:21:41.322Z,41.90
2019-04-21T14:24:10.883Z,43.60
2019-04-21T14:26:40.460Z,42.70
2019-04-21T14:29:09.874Z,42.50
2019-04-21T14:31:40.202Z,42.80
2019-04-21T14:34:10.074Z,43.20
2019-04-21T14:36:39.023Z,42.60
2019-04-21T14:39:10.566Z,41.50
2019-04-21T14:41:40.315Z,42.50
2019-04-21T14:44:09.257Z,42.20
2019-04-21T14:46:42.802Z,43.50
2019-04-21T14:49:13.149Z,43.30
2019-04-21T14:51:49.548Z,42.80
2019-04-21T14:54:20.644Z,43.40
2019-04-21T14:56:49.382Z,43.90
2019-04-21T14:59:19.240Z,43.20
2019-04-21T15:01:49.469Z,42.50
2019-04-21T15:04:19.371Z,43.70
2019-04-21T15:06:49.552Z,43.80
2019-04-21T15:09:18.899Z,44.30
2019-04-21T15:11:47.765Z,44.90
2019-04-21T15:14:17.759Z,42.80
2019-04-21T15:16:47.077Z,42.30
2019-04-21T15:19:16.881Z,42.60
2019-04-21T15:21:45.684Z,43.70
2019-04-21T15:24:14.319Z,41.90
2019-04-21T15:26:44.194Z,41.00
2019-04-21T15:29:13.015Z,42.20
2019-04-21T15:31:44.610Z,41.60
2019-04-21T15:34:12.983Z,40.40
2019-04-21T15:36:41.975Z,40.50
2019-04-21T15:39:11.892Z,40.80
2019-04-21T15:41:40.839Z,40.50
2019-04-21T15:44:09.869Z,41.60
2019-04-21T15:46:39.906Z,41.70
2019-04-21T15:49:09.215Z,41.90
2019-04-21T15:51:38.051Z,43.70
2019-04-21T15:54:06.934Z,45.30
2019-04-21T15:56:40.784Z,45.00
2019-04-21T15:59:14.717Z,45.40
2019-04-21T16:01:52.417Z,45.80
2019-04-21T16:04:21.033Z,45.20
2019-04-21T16:06:49.887Z,44.30
2019-04-21T16:09:21.665Z,45.40
2019-04-21T16:11:49.717Z,45.00
2019-04-21T16:14:18.727Z,44.60
2019-04-21T16:16:47.470Z,45.00
2019-04-21T16:19:16.428Z,45.50
2019-04-21T16:21:46.517Z,44.70
2019-04-21T16:24:16.415Z,45.00
2019-04-21T16:26:46.736Z,44.60
2019-04-21T16:29:15.549Z,44.70
2019-04-21T16:31:44.068Z,44.60
2019-04-21T16:34:13.740Z,44.40
2019-04-21T16:36:43.532Z,44.70
2019-04-21T16:39:13.198Z,44.90
2019-04-21T16:41:42.583Z,44.70
2019-04-21T16:44:11.284Z,44.60
2019-04-21T16:46:41.254Z,45.00
2019-04-21T16:49:09.933Z,44.90
2019-04-21T16:51:38.505Z,45.10
2019-04-21T16:54:10.091Z,44.70
2019-04-21T16:56:46.183Z,44.50
2019-04-21T16:59:16.723Z,44.20
2019-04-21T17:01:46.776Z,44.70
2019-04-21T17:04:16.016Z,44.70
2019-04-21T17:06:47.135Z,45.00
2019-04-21T17:09:16.796Z,44.10
2019-04-21T17:11:46.957Z,44.50
2019-04-21T17:14:33.065Z,44.50
2019-04-21T17:17:11.386Z,44.80
2019-04-21T17:19:26.968Z,44.60
2019-04-21T17:21:47.824Z,44.60
2019-04-21T17:24:16.778Z,44.70
2019-04-21T17:26:46.480Z,45.20
2019-04-21T17:29:16.860Z,45.60
2019-04-21T17:31:45.709Z,45.20
2019-04-21T17:34:21.193Z,44.90
2019-04-21T17:36:45.380Z,44.90
2019-04-21T17:39:14.123Z,44.90
2019-04-21T17:42:04.065Z,45.20
2019-04-21T17:44:17.163Z,45.70
2019-04-21T17:46:53.826Z,45.70
2019-04-21T17:49:17.166Z,46.30
2019-04-21T17:52:06.397Z,46.60
2019-04-21T17:54:41.865Z,47.20
2019-04-21T17:57:26.758Z,47.20
2019-04-21T18:00:04.058Z,47.50
2019-04-21T18:02:30.056Z,47.40
2019-04-21T18:05:03.744Z,47.80
2019-04-21T18:07:31.178Z,48.00
2019-04-21T18:10:04.503Z,48.20
2019-04-21T18:12:32.198Z,48.50
2019-04-21T18:14:59.238Z,48.30
2019-04-21T18:17:16.356Z,49.00
2019-04-21T18:19:47.460Z,49.60
2019-04-21T18:22:39.591Z,49.80
2019-04-21T18:25:15.360Z,50.30
2019-04-21T18:27:38.775Z,50.60
2019-04-21T18:30:34.028Z,50.70
2019-04-21T18:33:04.681Z,50.80
2019-04-21T18:35:37.534Z,51.20
2019-04-21T18:38:16.801Z,51.50
2019-04-21T18:40:45.216Z,51.70
2019-04-21T18:46:07.038Z,52.00
2019-04-21T18:48:24.580Z,52.30
2019-04-21T18:50:57.037Z,52.50
2019-04-21T18:53:36.449Z,52.50
2019-04-21T18:55:59.432Z,52.90
2019-04-21T18:58:22.461Z,53.00
2019-04-21T19:00:53.045Z,53.30
2019-04-21T19:03:29.193Z,53.10
2019-04-21T19:05:56.666Z,53.30
2019-04-21T19:08:39.256Z,53.90
2019-04-21T19:11:15.011Z,54.30
2019-04-21T19:14:12.706Z,53.50
2019-04-21T19:16:38.918Z,53.40
2019-04-21T19:19:18.525Z,53.50
2019-04-21T19:21:25.808Z,53.30
2019-04-21T19:24:10.507Z,54.00
2019-04-21T19:26:37.752Z,53.80
2019-04-21T19:29:01.252Z,53.80
2019-04-21T19:31:31.857Z,53.90
2019-04-21T19:33:51.599Z,53.80
2019-04-21T19:36:13.237Z,53.60
2019-04-21T19:38:51.730Z,54.20
2019-04-21T19:41:28.140Z,53.50
2019-04-21T19:44:02.569Z,53.70
2019-04-21T19:46:27.847Z,54.00
2019-04-21T19:49:13.753Z,53.80
2019-04-21T19:51:29.029Z,53.40
2019-04-21T19:53:54.018Z,53.80
2019-04-21T19:56:14.367Z,53.80
2019-04-21T19:58:46.055Z,53.20
2019-04-21T20:01:13.772Z,53.60
2019-04-21T20:03:43.147Z,53.50
2019-04-21T20:06:31.537Z,53.00
2019-04-21T20:09:00.726Z,53.10
2019-04-21T20:11:30.800Z,53.20
2019-04-21T20:14:35.746Z,52.40
2019-04-21T20:16:37.407Z,52.90
2019-04-21T20:18:49.545Z,53.00
2019-04-21T20:21:14.439Z,53.00
2019-04-21T20:23:44.694Z,53.30
2019-04-21T20:26:14.064Z,53.30
2019-04-21T20:28:54.731Z,54.00
2019-04-21T20:31:34.370Z,54.30
2019-04-21T20:34:07.823Z,53.80
2019-04-21T20:36:38.026Z,54.20
2019-04-21T20:38:51.534Z,54.10
2019-04-21T20:41:27.018Z,53.80
2019-04-21T20:44:06.211Z,54.70
2019-04-21T20:46:36.584Z,54.40
2019-04-21T20:49:00.077Z,54.20
2019-04-21T20:51:35.887Z,54.70
2019-04-21T20:54:00.519Z,54.80
2019-04-21T20:56:27.687Z,54.70
2019-04-21T20:58:59.993Z,55.70
2019-04-21T21:01:34.872Z,56.80
2019-04-21T21:04:02.281Z,55.60
2019-04-21T21:06:33.685Z,55.60
2019-04-21T21:09:06.156Z,55.70
2019-04-21T21:11:45.115Z,55.80
2019-04-21T21:14:06.990Z,55.90
2019-04-21T21:16:41.437Z,56.20
2019-04-21T21:21:34.115Z,57.00
2019-04-21T21:24:05.382Z,56.50
2019-04-21T21:26:36.789Z,56.90
2019-04-21T21:28:57.450Z,56.50
2019-04-21T21:31:38.712Z,57.40
2019-04-21T21:34:11.922Z,58.50
2019-04-21T21:36:36.758Z,57.60
2019-04-21T21:39:09.552Z,57.40
2019-04-21T21:41:26.422Z,57.80
2019-04-21T21:44:00.526Z,58.10
2019-04-21T21:46:36.778Z,58.00
2019-04-21T21:49:01.742Z,58.70
2019-04-21T21:51:35.854Z,58.80
2019-04-21T21:53:52.721Z,58.90
2019-04-21T21:56:22.678Z,59.30
2019-04-21T21:58:51.941Z,59.00
2019-04-21T22:01:31.997Z,58.80
2019-04-21T22:04:01.692Z,58.90
2019-04-21T22:06:23.939Z,59.00
2019-04-21T22:08:52.453Z,59.50
2019-04-21T22:11:22.131Z,59.30
2019-04-21T22:13:57.618Z,59.60
2019-04-21T22:16:21.838Z,59.20
2019-04-21T22:19:06.884Z,59.30
2019-04-21T22:21:41.538Z,59.30
2019-04-21T22:23:59.423Z,59.60
2019-04-21T22:26:22.969Z,60.00
2019-04-21T22:28:53.793Z,60.10
2019-04-21T22:31:26.870Z,60.40
2019-04-21T22:33:55.721Z,60.90
2019-04-21T22:36:35.435Z,60.90
2019-04-21T22:39:17.653Z,61.50
2019-04-21T22:41:31.010Z,61.30
2019-04-21T22:43:55.235Z,61.30
2019-04-21T22:46:24.421Z,61.70
2019-04-21T22:48:57.277Z,61.50
2019-04-21T22:51:30.525Z,61.90
2019-04-21T22:53:55.561Z,61.80
2019-04-21T22:56:26.862Z,62.00
2019-04-21T22:58:54.997Z,61.60
2019-04-21T23:01:33.391Z,61.80
2019-04-21T23:03:59.239Z,62.00
2019-04-21T23:06:29.049Z,62.30
2019-04-21T23:08:55.421Z,62.00
2019-04-21T23:11:29.287Z,62.00
2019-04-21T23:14:04.077Z,62.30
2019-04-21T23:16:30.101Z,62.40
2019-04-21T23:19:17.055Z,62.50
2019-04-21T23:21:45.799Z,62.80
2019-04-21T23:24:13.444Z,62.90
2019-04-21T23:26:42.030Z,62.80
2019-04-21T23:29:15.657Z,63.10
2019-04-21T23:31:48.299Z,63.50
2019-04-21T23:33:56.380Z,63.60
2019-04-21T23:36:29.671Z,63.50
2019-04-21T23:38:57.120Z,63.60
2019-04-21T23:41:33.579Z,64.00
2019-04-21T23:44:02.962Z,64.20
2019-04-21T23:46:29.844Z,64.50
2019-04-21T23:49:12.617Z,64.60
2019-04-21T23:51:37.738Z,64.70
2019-04-21T23:53:57.518Z,65.00
2019-04-21T23:56:33.284Z,64.50
2019-04-21T23:59:02.638Z,64.80
